UAL112 LDRI-LOWS

Flight info

Callsign UAL112
Flight time N/A
Altitude 30000
Route ALIVO DCT RASTA RASTA2R
Aircraft A320/M-SDE3FGHIRWY/LB1

Departure

Time 2026-04-28 21:58
Airport Rijeka Airport (LDRI)

Arrival

Time N/A
Airport Salzburg Airport (LOWS)
Time Latitude Longitude Altitude Speed Heading
2026-04-28 21:31 45.21957 14.57101 269 ft 0 kts 103°
2026-04-28 21:46 45.21959 14.57090 268 ft 3 kts 103°
2026-04-28 21:46 45.21965 14.57068 269 ft 2 kts 110°
2026-04-28 21:47 45.21970 14.57045 268 ft 3 kts 103°
2026-04-28 21:47 45.21974 14.57023 268 ft 2 kts 109°
2026-04-28 21:47 45.21979 14.57004 268 ft 0 kts 145°
2026-04-28 21:50 45.21978 14.57004 268 ft 1 kts 144°
2026-04-28 21:51 45.21953 14.57030 268 ft 8 kts 143°
2026-04-28 21:51 45.21900 14.57089 268 ft 11 kts 142°
2026-04-28 21:51 45.21833 14.57159 268 ft 13 kts 144°
2026-04-28 21:51 45.21755 14.57204 268 ft 11 kts 181°
2026-04-28 21:52 45.21706 14.57202 266 ft 0 kts 183°
2026-04-28 21:53 45.21703 14.57201 266 ft 2 kts 183°
2026-04-28 21:53 45.21652 14.57198 265 ft 12 kts 182°
2026-04-28 21:53 45.21556 14.57208 266 ft 15 kts 159°
2026-04-28 21:54 45.21463 14.57294 265 ft 14 kts 144°
2026-04-28 21:54 45.21397 14.57362 264 ft 15 kts 144°
2026-04-28 21:54 45.21351 14.57409 264 ft 13 kts 144°
2026-04-28 21:55 45.21262 14.57502 261 ft 18 kts 143°
2026-04-28 21:55 45.21152 14.57619 262 ft 20 kts 144°
2026-04-28 21:55 45.21035 14.57741 261 ft 22 kts 144°
2026-04-28 21:55 45.20913 14.57867 266 ft 21 kts 146°
2026-04-28 21:56 45.20835 14.57940 267 ft 13 kts 153°
2026-04-28 21:56 45.20770 14.57986 268 ft 7 kts 90°
2026-04-28 21:56 45.20804 14.57978 267 ft 0 kts 324°
2026-04-28 21:56 45.20809 14.57974 267 ft 0 kts 324°
2026-04-28 21:57 45.20836 14.57947 267 ft 18 kts 324°
2026-04-28 21:57 45.21152 14.57617 262 ft 91 kts 323°
2026-04-28 21:57 45.21821 14.56923 261 ft 144 kts 323°
2026-04-28 21:57 45.22723 14.55980 334 ft 178 kts 325°
2026-04-28 21:58 45.23725 14.54930 868 ft 179 kts 325°
2026-04-28 21:58 45.24603 14.53649 1548 ft 181 kts 309°
2026-04-28 21:58 45.25292 14.52145 2190 ft 181 kts 303°
2026-04-28 21:58 45.25987 14.50610 2521 ft 194 kts 305°
2026-04-28 21:59 45.26724 14.48860 2690 ft 221 kts 288°
2026-04-28 21:59 45.26675 14.46610 2977 ft 245 kts 247°
2026-04-28 21:59 45.25549 14.44756 3511 ft 258 kts 208°
2026-04-28 22:00 45.22102 14.43531 5274 ft 256 kts 186°
2026-04-28 22:00 45.20323 14.43249 6127 ft 258 kts 187°
2026-04-28 22:00 45.18527 14.42929 6909 ft 262 kts 189°
2026-04-28 22:00 45.16711 14.42535 7679 ft 266 kts 191°
2026-04-28 22:01 45.14881 14.42071 8436 ft 269 kts 192°
2026-04-28 22:01 45.13031 14.41557 9207 ft 272 kts 193°
2026-04-28 22:01 45.11190 14.41020 9955 ft 275 kts 194°
2026-04-28 22:01 45.09248 14.40786 10470 ft 290 kts 172°
2026-04-28 22:02 45.07403 14.41994 11015 ft 302 kts 139°
2026-04-28 22:02 45.06226 14.44446 11631 ft 309 kts 108°
2026-04-28 22:02 45.06033 14.47490 12092 ft 321 kts 82°
2026-04-28 22:02 45.06566 14.50656 12239 ft 342 kts 70°
2026-04-28 22:03 45.07457 14.53869 12462 ft 359 kts 65°
2026-04-28 22:03 45.08452 14.57151 12997 ft 366 kts 66°
2026-04-28 22:03 45.09406 14.60513 13625 ft 370 kts 68°
2026-04-28 22:03 45.10258 14.63878 14197 ft 375 kts 70°
2026-04-28 22:04 45.11197 14.67315 14704 ft 377 kts 63°
2026-04-28 22:04 45.12655 14.70400 15219 ft 378 kts 46°
2026-04-28 22:04 45.14634 14.72817 15788 ft 376 kts 29°
2026-04-28 22:04 45.16993 14.74359 16344 ft 373 kts 13°
2026-04-28 22:05 45.19544 14.74931 16917 ft 371 kts 357°
2026-04-28 22:05 45.22131 14.74857 17518 ft 372 kts 355°
2026-04-28 22:05 45.24734 14.74763 18120 ft 375 kts 355°
2026-04-28 22:05 45.27348 14.74676 18662 ft 378 kts 355°
2026-04-28 22:06 45.29991 14.74591 19204 ft 381 kts 355°
2026-04-28 22:06 45.32653 14.74508 19760 ft 383 kts 355°
2026-04-28 22:06 45.35259 14.74429 20310 ft 386 kts 355°
2026-04-28 22:06 45.37946 14.74346 20847 ft 388 kts 355°
2026-04-28 22:07 45.40622 14.74262 21259 ft 393 kts 355°
2026-04-28 22:07 45.43353 14.74180 21793 ft 394 kts 354°
2026-04-28 22:07 45.46102 14.74098 22335 ft 395 kts 354°
2026-04-28 22:07 45.48863 14.74011 22815 ft 398 kts 354°
2026-04-28 22:08 45.51612 14.73624 23275 ft 396 kts 345°
2026-04-28 22:08 45.54250 14.72582 23739 ft 393 kts 335°
2026-04-28 22:08 45.56739 14.70996 24151 ft 393 kts 331°
2026-04-28 22:08 45.59215 14.69337 24567 ft 394 kts 331°
2026-04-28 22:09 45.61708 14.67683 24975 ft 396 kts 331°
2026-04-28 22:09 45.64208 14.66029 25445 ft 395 kts 331°
2026-04-28 22:09 45.66704 14.64378 25880 ft 396 kts 331°